Hillsboro, Indiana
Current Conditions -  °F | °C
As of 12:35 AM on Thursday 18 Dec 2014 (Local Time) from KDNV Reporting Station
Overcast Overcast  
Wind Chill: 25°   Ceiling: 1900
Heat Index: 25°   Visibility: 10mi
Dew Point: 18°   Wind: 3mph
Humidity: 76%   Direction: 340°NNW
Pressure: 30.27"   Gusts: NA
Location:  40.11°N, 87.19°W
Report Text: KDNV 180535Z AUTO 34003KT 10SM OVC019 M04/M08 A3027 RMK AO2 T10401076
Loading
Personal Weather Stations






























Interactive Weather Map New forecast layout! Learn more

10-Day Weather Forecast

Advertisements
Track Severe Weather on mobile